sensor_id;sensor_type;location;lat;lon;timestamp;temperature;humidity
46732;DHT22;32477;51.474;5.696;2023-05-10T00:01:05;12.80;99.90
46732;DHT22;32477;51.474;5.696;2023-05-10T00:03:30;12.90;99.90
46732;DHT22;32477;51.474;5.696;2023-05-10T00:05:56;12.80;99.90
46732;DHT22;32477;51.474;5.696;2023-05-10T00:08:22;12.90;99.90
46732;DHT22;32477;51.474;5.696;2023-05-10T00:10:48;12.80;99.90
46732;DHT22;32477;51.474;5.696;2023-05-10T00:13:13;12.80;99.90
46732;DHT22;32477;51.474;5.696;2023-05-10T00:15:39;12.80;99.90
46732;DHT22;32477;51.474;5.696;2023-05-10T00:18:05;12.80;99.90
46732;DHT22;32477;51.474;5.696;2023-05-10T00:20:30;12.80;99.90
46732;DHT22;32477;51.474;5.696;2023-05-10T00:22:56;12.80;99.90
46732;DHT22;32477;51.474;5.696;2023-05-10T00:25:21;12.80;99.90
46732;DHT22;32477;51.474;5.696;2023-05-10T00:27:47;12.80;99.90
46732;DHT22;32477;51.474;5.696;2023-05-10T00:30:13;12.70;99.90
46732;DHT22;32477;51.474;5.696;2023-05-10T00:32:39;12.80;99.90
46732;DHT22;32477;51.474;5.696;2023-05-10T00:35:05;12.70;99.90
46732;DHT22;32477;51.474;5.696;2023-05-10T00:37:30;12.70;99.90
46732;DHT22;32477;51.474;5.696;2023-05-10T00:39:56;12.70;99.90
46732;DHT22;32477;51.474;5.696;2023-05-10T00:42:22;12.70;99.90
46732;DHT22;32477;51.474;5.696;2023-05-10T00:44:47;12.70;99.90
46732;DHT22;32477;51.474;5.696;2023-05-10T00:47:13;12.60;99.90
46732;DHT22;32477;51.474;5.696;2023-05-10T00:49:40;12.60;99.90
46732;DHT22;32477;51.474;5.696;2023-05-10T00:52:06;12.60;99.90
46732;DHT22;32477;51.474;5.696;2023-05-10T00:54:32;12.50;99.90
46732;DHT22;32477;51.474;5.696;2023-05-10T00:56:57;12.50;99.90
46732;DHT22;32477;51.474;5.696;2023-05-10T00:59:24;12.50;99.90
46732;DHT22;32477;51.474;5.696;2023-05-10T01:01:50;12.50;99.90
46732;DHT22;32477;51.474;5.696;2023-05-10T01:04:16;12.50;99.90
46732;DHT22;32477;51.474;5.696;2023-05-10T01:06:43;12.50;99.90
46732;DHT22;32477;51.474;5.696;2023-05-10T01:09:09;12.60;99.90
46732;DHT22;32477;51.474;5.696;2023-05-10T01:11:37;12.60;99.90
46732;DHT22;32477;51.474;5.696;2023-05-10T01:14:03;12.60;99.90
46732;DHT22;32477;51.474;5.696;2023-05-10T01:16:38;12.70;99.90
46732;DHT22;32477;51.474;5.696;2023-05-10T01:19:11;12.70;99.90
46732;DHT22;32477;51.474;5.696;2023-05-10T01:21:48;12.70;99.90
46732;DHT22;32477;51.474;5.696;2023-05-10T01:35:54;12.50;99.90
46732;DHT22;32477;51.474;5.696;2023-05-10T01:38:49;12.50;99.90
46732;DHT22;32477;51.474;5.696;2023-05-10T01:46:40;12.80;99.90
46732;DHT22;32477;51.474;5.696;2023-05-10T01:49:17;12.80;99.90
46732;DHT22;32477;51.474;5.696;2023-05-10T01:51:48;12.90;99.90
46732;DHT22;32477;51.474;5.696;2023-05-10T01:54:18;12.90;99.90
46732;DHT22;32477;51.474;5.696;2023-05-10T01:56:47;12.90;99.90
46732;DHT22;32477;51.474;5.696;2023-05-10T01:59:17;12.90;99.90
46732;DHT22;32477;51.474;5.696;2023-05-10T02:01:45;12.90;99.90
46732;DHT22;32477;51.474;5.696;2023-05-10T02:04:15;12.90;99.90
46732;DHT22;32477;51.474;5.696;2023-05-10T02:06:42;13.00;99.90
46732;DHT22;32477;51.474;5.696;2023-05-10T02:09:10;13.00;99.90
46732;DHT22;32477;51.474;5.696;2023-05-10T02:11:38;13.00;99.90
46732;DHT22;32477;51.474;5.696;2023-05-10T02:14:07;13.00;99.90
46732;DHT22;32477;51.474;5.696;2023-05-10T02:16:35;13.00;99.90
46732;DHT22;32477;51.474;5.696;2023-05-10T02:19:02;13.00;99.90
46732;DHT22;32477;51.474;5.696;2023-05-10T02:21:29;13.10;99.90
46732;DHT22;32477;51.474;5.696;2023-05-10T02:23:57;13.00;99.90
46732;DHT22;32477;51.474;5.696;2023-05-10T02:26:24;13.10;99.90
46732;DHT22;32477;51.474;5.696;2023-05-10T02:28:52;13.10;99.90
46732;DHT22;32477;51.474;5.696;2023-05-10T02:31:19;13.10;99.90
46732;DHT22;32477;51.474;5.696;2023-05-10T02:33:45;13.10;99.90
46732;DHT22;32477;51.474;5.696;2023-05-10T02:36:12;13.10;99.90
46732;DHT22;32477;51.474;5.696;2023-05-10T02:38:39;13.10;99.90
46732;DHT22;32477;51.474;5.696;2023-05-10T02:41:05;13.10;99.90
46732;DHT22;32477;51.474;5.696;2023-05-10T02:43:33;13.20;99.90
46732;DHT22;32477;51.474;5.696;2023-05-10T02:46:01;13.10;99.90
46732;DHT22;32477;51.474;5.696;2023-05-10T02:48:27;13.20;99.90
46732;DHT22;32477;51.474;5.696;2023-05-10T02:50:55;13.10;99.90
46732;DHT22;32477;51.474;5.696;2023-05-10T02:53:23;13.20;99.90
46732;DHT22;32477;51.474;5.696;2023-05-10T02:55:55;13.20;99.90
46732;DHT22;32477;51.474;5.696;2023-05-10T02:58:22;13.20;99.90
46732;DHT22;32477;51.474;5.696;2023-05-10T03:00:47;13.20;99.90
46732;DHT22;32477;51.474;5.696;2023-05-10T03:03:13;13.20;99.90
46732;DHT22;32477;51.474;5.696;2023-05-10T03:05:39;13.20;99.90
46732;DHT22;32477;51.474;5.696;2023-05-10T03:08:04;13.20;99.90
46732;DHT22;32477;51.474;5.696;2023-05-10T03:10:32;13.20;99.90
46732;DHT22;32477;51.474;5.696;2023-05-10T03:16:05;13.20;99.90
46732;DHT22;32477;51.474;5.696;2023-05-10T03:21:05;13.10;99.90
46732;DHT22;32477;51.474;5.696;2023-05-10T03:23:53;13.10;99.90
46732;DHT22;32477;51.474;5.696;2023-05-10T03:26:26;13.10;99.90
46732;DHT22;32477;51.474;5.696;2023-05-10T03:28:52;13.10;99.90
46732;DHT22;32477;51.474;5.696;2023-05-10T03:31:18;13.20;99.90
46732;DHT22;32477;51.474;5.696;2023-05-10T03:33:48;13.10;99.90
46732;DHT22;32477;51.474;5.696;2023-05-10T03:36:14;13.10;99.90
46732;DHT22;32477;51.474;5.696;2023-05-10T03:38:40;13.10;99.90
46732;DHT22;32477;51.474;5.696;2023-05-10T03:41:06;13.10;99.90
46732;DHT22;32477;51.474;5.696;2023-05-10T03:43:31;13.10;99.90
46732;DHT22;32477;51.474;5.696;2023-05-10T03:45:57;13.10;99.90
46732;DHT22;32477;51.474;5.696;2023-05-10T03:48:23;13.10;99.90
46732;DHT22;32477;51.474;5.696;2023-05-10T03:50:48;13.10;99.90
46732;DHT22;32477;51.474;5.696;2023-05-10T03:53:15;13.10;99.90
46732;DHT22;32477;51.474;5.696;2023-05-10T03:55:41;13.10;99.90
46732;DHT22;32477;51.474;5.696;2023-05-10T03:58:07;13.10;99.90
46732;DHT22;32477;51.474;5.696;2023-05-10T04:00:35;13.10;99.90
46732;DHT22;32477;51.474;5.696;2023-05-10T04:03:01;13.10;99.90
46732;DHT22;32477;51.474;5.696;2023-05-10T04:05:26;13.10;99.90
46732;DHT22;32477;51.474;5.696;2023-05-10T04:07:52;13.10;99.90
46732;DHT22;32477;51.474;5.696;2023-05-10T04:10:18;13.10;99.90
46732;DHT22;32477;51.474;5.696;2023-05-10T04:12:44;13.10;99.90
46732;DHT22;32477;51.474;5.696;2023-05-10T04:15:09;13.10;99.90
46732;DHT22;32477;51.474;5.696;2023-05-10T04:17:35;13.10;99.90
46732;DHT22;32477;51.474;5.696;2023-05-10T04:20:01;13.10;99.90
46732;DHT22;32477;51.474;5.696;2023-05-10T04:22:27;13.10;99.90
46732;DHT22;32477;51.474;5.696;2023-05-10T04:24:54;13.10;99.90
46732;DHT22;32477;51.474;5.696;2023-05-10T04:27:20;13.10;99.90
46732;DHT22;32477;51.474;5.696;2023-05-10T04:29:45;13.10;99.90
46732;DHT22;32477;51.474;5.696;2023-05-10T04:32:11;13.10;99.90
46732;DHT22;32477;51.474;5.696;2023-05-10T04:34:37;13.10;99.90
46732;DHT22;32477;51.474;5.696;2023-05-10T04:37:03;13.10;99.90
46732;DHT22;32477;51.474;5.696;2023-05-10T04:39:28;13.10;99.90
46732;DHT22;32477;51.474;5.696;2023-05-10T04:41:54;13.20;99.90
46732;DHT22;32477;51.474;5.696;2023-05-10T04:44:20;13.10;99.90
46732;DHT22;32477;51.474;5.696;2023-05-10T04:46:45;13.10;99.90
46732;DHT22;32477;51.474;5.696;2023-05-10T04:49:11;13.10;99.90
46732;DHT22;32477;51.474;5.696;2023-05-10T04:51:37;13.10;99.90
46732;DHT22;32477;51.474;5.696;2023-05-10T04:54:03;13.10;99.90
46732;DHT22;32477;51.474;5.696;2023-05-10T04:56:28;13.20;99.90
46732;DHT22;32477;51.474;5.696;2023-05-10T04:58:54;13.20;99.90
46732;DHT22;32477;51.474;5.696;2023-05-10T05:01:20;13.10;99.90
46732;DHT22;32477;51.474;5.696;2023-05-10T05:03:45;13.10;99.90
46732;DHT22;32477;51.474;5.696;2023-05-10T05:06:11;13.10;99.90
46732;DHT22;32477;51.474;5.696;2023-05-10T05:08:37;13.20;99.90
46732;DHT22;32477;51.474;5.696;2023-05-10T05:11:02;13.20;99.90
46732;DHT22;32477;51.474;5.696;2023-05-10T05:13:28;13.20;99.90
46732;DHT22;32477;51.474;5.696;2023-05-10T05:15:54;13.10;99.90
46732;DHT22;32477;51.474;5.696;2023-05-10T05:18:20;13.10;99.90
46732;DHT22;32477;51.474;5.696;2023-05-10T05:20:46;13.10;99.90
46732;DHT22;32477;51.474;5.696;2023-05-10T05:23:12;13.00;99.90
46732;DHT22;32477;51.474;5.696;2023-05-10T05:25:37;13.00;99.90
46732;DHT22;32477;51.474;5.696;2023-05-10T05:28:03;13.10;99.90
46732;DHT22;32477;51.474;5.696;2023-05-10T05:30:29;13.00;99.90
46732;DHT22;32477;51.474;5.696;2023-05-10T05:32:54;13.00;99.90
46732;DHT22;32477;51.474;5.696;2023-05-10T05:35:20;13.00;99.90
46732;DHT22;32477;51.474;5.696;2023-05-10T05:37:46;13.00;99.90
46732;DHT22;32477;51.474;5.696;2023-05-10T05:40:15;13.00;99.90
46732;DHT22;32477;51.474;5.696;2023-05-10T05:42:41;13.00;99.90
46732;DHT22;32477;51.474;5.696;2023-05-10T05:45:07;13.10;99.90
46732;DHT22;32477;51.474;5.696;2023-05-10T05:47:34;13.20;99.90
46732;DHT22;32477;51.474;5.696;2023-05-10T05:49:59;13.30;99.90
46732;DHT22;32477;51.474;5.696;2023-05-10T05:52:25;13.50;99.90
46732;DHT22;32477;51.474;5.696;2023-05-10T05:54:51;13.50;99.90
46732;DHT22;32477;51.474;5.696;2023-05-10T05:57:17;13.60;99.90
46732;DHT22;32477;51.474;5.696;2023-05-10T05:59:42;13.60;99.90
46732;DHT22;32477;51.474;5.696;2023-05-10T06:02:09;13.60;99.90
46732;DHT22;32477;51.474;5.696;2023-05-10T06:04:35;13.70;99.90
46732;DHT22;32477;51.474;5.696;2023-05-10T06:07:01;13.70;99.90
46732;DHT22;32477;51.474;5.696;2023-05-10T06:09:26;13.70;99.90
46732;DHT22;32477;51.474;5.696;2023-05-10T06:11:52;13.70;99.90
46732;DHT22;32477;51.474;5.696;2023-05-10T06:14:20;13.70;99.90
46732;DHT22;32477;51.474;5.696;2023-05-10T06:16:46;13.80;99.90
46732;DHT22;32477;51.474;5.696;2023-05-10T06:19:11;13.80;99.90
46732;DHT22;32477;51.474;5.696;2023-05-10T06:21:37;13.70;99.90
46732;DHT22;32477;51.474;5.696;2023-05-10T06:24:03;13.80;99.90
46732;DHT22;32477;51.474;5.696;2023-05-10T06:26:29;13.80;99.90
46732;DHT22;32477;51.474;5.696;2023-05-10T06:28:54;13.70;99.90
46732;DHT22;32477;51.474;5.696;2023-05-10T06:31:20;13.60;99.90
46732;DHT22;32477;51.474;5.696;2023-05-10T06:33:46;13.70;99.90
46732;DHT22;32477;51.474;5.696;2023-05-10T06:36:12;13.70;99.90
46732;DHT22;32477;51.474;5.696;2023-05-10T06:38:38;13.70;99.90
46732;DHT22;32477;51.474;5.696;2023-05-10T06:41:04;13.60;99.90
46732;DHT22;32477;51.474;5.696;2023-05-10T06:43:30;13.80;99.90
46732;DHT22;32477;51.474;5.696;2023-05-10T06:45:55;13.70;99.90
46732;DHT22;32477;51.474;5.696;2023-05-10T06:48:21;13.70;99.90
46732;DHT22;32477;51.474;5.696;2023-05-10T06:50:46;13.80;99.90
46732;DHT22;32477;51.474;5.696;2023-05-10T06:53:12;13.90;99.90
46732;DHT22;32477;51.474;5.696;2023-05-10T06:55:39;13.90;99.90
46732;DHT22;32477;51.474;5.696;2023-05-10T06:58:04;13.90;99.90
46732;DHT22;32477;51.474;5.696;2023-05-10T07:00:30;13.80;99.90
46732;DHT22;32477;51.474;5.696;2023-05-10T07:02:56;13.80;99.90
46732;DHT22;32477;51.474;5.696;2023-05-10T07:05:21;13.90;99.90
46732;DHT22;32477;51.474;5.696;2023-05-10T07:07:47;13.80;99.90
46732;DHT22;32477;51.474;5.696;2023-05-10T07:10:13;13.90;99.90
46732;DHT22;32477;51.474;5.696;2023-05-10T07:12:38;13.90;99.90
46732;DHT22;32477;51.474;5.696;2023-05-10T07:15:05;14.00;99.90
46732;DHT22;32477;51.474;5.696;2023-05-10T07:17:30;13.90;99.90
46732;DHT22;32477;51.474;5.696;2023-05-10T07:19:56;14.00;99.90
46732;DHT22;32477;51.474;5.696;2023-05-10T07:22:22;13.90;99.90
46732;DHT22;32477;51.474;5.696;2023-05-10T07:24:47;13.90;99.90
46732;DHT22;32477;51.474;5.696;2023-05-10T07:27:13;14.00;99.90
46732;DHT22;32477;51.474;5.696;2023-05-10T07:29:39;14.00;99.90
46732;DHT22;32477;51.474;5.696;2023-05-10T07:32:07;14.00;99.90
46732;DHT22;32477;51.474;5.696;2023-05-10T07:34:33;14.00;99.90
46732;DHT22;32477;51.474;5.696;2023-05-10T07:36:59;14.00;99.90
46732;DHT22;32477;51.474;5.696;2023-05-10T07:39:25;14.00;99.90
46732;DHT22;32477;51.474;5.696;2023-05-10T07:41:51;14.00;99.90
46732;DHT22;32477;51.474;5.696;2023-05-10T07:44:17;14.10;99.90
46732;DHT22;32477;51.474;5.696;2023-05-10T07:46:44;14.20;99.90
46732;DHT22;32477;51.474;5.696;2023-05-10T07:49:10;14.40;99.90
46732;DHT22;32477;51.474;5.696;2023-05-10T07:51:35;14.50;99.90
46732;DHT22;32477;51.474;5.696;2023-05-10T07:54:01;14.60;99.90
46732;DHT22;32477;51.474;5.696;2023-05-10T07:56:29;14.60;99.90
46732;DHT22;32477;51.474;5.696;2023-05-10T07:58:56;14.50;99.90
46732;DHT22;32477;51.474;5.696;2023-05-10T08:01:22;14.50;99.90
46732;DHT22;32477;51.474;5.696;2023-05-10T08:03:48;14.50;99.90
46732;DHT22;32477;51.474;5.696;2023-05-10T08:06:15;14.40;99.90
46732;DHT22;32477;51.474;5.696;2023-05-10T08:08:41;14.30;99.90
46732;DHT22;32477;51.474;5.696;2023-05-10T08:11:06;14.30;99.90
46732;DHT22;32477;51.474;5.696;2023-05-10T08:13:32;14.30;99.90
46732;DHT22;32477;51.474;5.696;2023-05-10T08:15:58;14.20;99.90
46732;DHT22;32477;51.474;5.696;2023-05-10T08:18:24;14.20;99.90
46732;DHT22;32477;51.474;5.696;2023-05-10T08:20:50;14.20;99.90
46732;DHT22;32477;51.474;5.696;2023-05-10T08:23:15;14.20;99.90
46732;DHT22;32477;51.474;5.696;2023-05-10T08:25:41;14.20;99.90
46732;DHT22;32477;51.474;5.696;2023-05-10T08:28:07;14.20;99.90
46732;DHT22;32477;51.474;5.696;2023-05-10T08:30:32;14.20;99.90
46732;DHT22;32477;51.474;5.696;2023-05-10T08:32:58;14.20;99.90
46732;DHT22;32477;51.474;5.696;2023-05-10T08:35:24;14.10;99.90
46732;DHT22;32477;51.474;5.696;2023-05-10T08:37:51;14.10;99.90
46732;DHT22;32477;51.474;5.696;2023-05-10T08:40:19;14.00;99.90
46732;DHT22;32477;51.474;5.696;2023-05-10T08:43:12;13.90;99.90
46732;DHT22;32477;51.474;5.696;2023-05-10T08:45:39;14.00;99.90
46732;DHT22;32477;51.474;5.696;2023-05-10T08:48:09;14.10;99.90
46732;DHT22;32477;51.474;5.696;2023-05-10T08:50:39;14.00;99.90
46732;DHT22;32477;51.474;5.696;2023-05-10T08:53:09;14.00;99.90
46732;DHT22;32477;51.474;5.696;2023-05-10T08:55:36;14.00;99.90
46732;DHT22;32477;51.474;5.696;2023-05-10T08:58:04;14.00;99.90
46732;DHT22;32477;51.474;5.696;2023-05-10T09:00:30;14.10;99.90
46732;DHT22;32477;51.474;5.696;2023-05-10T09:02:58;14.20;99.90
46732;DHT22;32477;51.474;5.696;2023-05-10T09:05:24;14.20;99.90
46732;DHT22;32477;51.474;5.696;2023-05-10T09:07:50;14.20;99.90
46732;DHT22;32477;51.474;5.696;2023-05-10T09:10:16;14.30;99.90
46732;DHT22;32477;51.474;5.696;2023-05-10T09:12:41;14.30;99.90
46732;DHT22;32477;51.474;5.696;2023-05-10T09:15:09;14.30;99.90
46732;DHT22;32477;51.474;5.696;2023-05-10T09:17:36;14.30;99.90
46732;DHT22;32477;51.474;5.696;2023-05-10T09:20:04;14.50;99.90
46732;DHT22;32477;51.474;5.696;2023-05-10T09:22:30;14.60;99.90
46732;DHT22;32477;51.474;5.696;2023-05-10T09:25:14;14.80;99.90
46732;DHT22;32477;51.474;5.696;2023-05-10T09:27:41;15.00;99.90
46732;DHT22;32477;51.474;5.696;2023-05-10T09:30:10;15.10;99.90
46732;DHT22;32477;51.474;5.696;2023-05-10T09:32:40;15.20;99.90
46732;DHT22;32477;51.474;5.696;2023-05-10T09:35:10;15.30;99.90
46732;DHT22;32477;51.474;5.696;2023-05-10T09:37:36;15.50;99.90
46732;DHT22;32477;51.474;5.696;2023-05-10T09:40:05;15.70;99.90
46732;DHT22;32477;51.474;5.696;2023-05-10T09:42:31;15.90;99.90
46732;DHT22;32477;51.474;5.696;2023-05-10T09:45:04;16.30;99.90
46732;DHT22;32477;51.474;5.696;2023-05-10T09:47:34;17.30;99.90
46732;DHT22;32477;51.474;5.696;2023-05-10T09:50:01;18.20;99.90
46732;DHT22;32477;51.474;5.696;2023-05-10T09:52:51;18.50;99.90
46732;DHT22;32477;51.474;5.696;2023-05-10T09:55:19;18.80;99.90
46732;DHT22;32477;51.474;5.696;2023-05-10T09:57:46;18.50;99.90
46732;DHT22;32477;51.474;5.696;2023-05-10T10:00:19;17.90;99.90
46732;DHT22;32477;51.474;5.696;2023-05-10T10:02:47;17.60;99.90
46732;DHT22;32477;51.474;5.696;2023-05-10T10:05:13;17.30;99.90
46732;DHT22;32477;51.474;5.696;2023-05-10T10:07:39;17.30;99.90
46732;DHT22;32477;51.474;5.696;2023-05-10T10:10:06;17.20;99.90
46732;DHT22;32477;51.474;5.696;2023-05-10T10:12:37;17.50;99.90
46732;DHT22;32477;51.474;5.696;2023-05-10T10:15:03;17.40;99.90
46732;DHT22;32477;51.474;5.696;2023-05-10T10:17:30;17.70;99.90
46732;DHT22;32477;51.474;5.696;2023-05-10T10:19:57;18.60;99.90
46732;DHT22;32477;51.474;5.696;2023-05-10T10:22:23;19.50;99.90
46732;DHT22;32477;51.474;5.696;2023-05-10T10:24:50;20.40;99.90
46732;DHT22;32477;51.474;5.696;2023-05-10T10:27:32;20.40;99.90
46732;DHT22;32477;51.474;5.696;2023-05-10T10:35:36;18.70;99.90
46732;DHT22;32477;51.474;5.696;2023-05-10T10:38:02;18.40;99.90
46732;DHT22;32477;51.474;5.696;2023-05-10T10:40:30;18.30;99.90
46732;DHT22;32477;51.474;5.696;2023-05-10T10:42:56;17.90;99.90
46732;DHT22;32477;51.474;5.696;2023-05-10T10:45:24;17.40;99.90
46732;DHT22;32477;51.474;5.696;2023-05-10T10:48:22;17.00;99.90
46732;DHT22;32477;51.474;5.696;2023-05-10T10:50:56;16.80;99.90
46732;DHT22;32477;51.474;5.696;2023-05-10T10:53:22;16.70;99.90
46732;DHT22;32477;51.474;5.696;2023-05-10T10:55:48;16.80;99.90
46732;DHT22;32477;51.474;5.696;2023-05-10T10:58:30;17.20;99.90
46732;DHT22;32477;51.474;5.696;2023-05-10T11:01:16;17.80;99.90
46732;DHT22;32477;51.474;5.696;2023-05-10T11:04:28;18.30;99.90
46732;DHT22;32477;51.474;5.696;2023-05-10T11:06:46;18.50;99.90
46732;DHT22;32477;51.474;5.696;2023-05-10T11:09:12;18.70;99.90
46732;DHT22;32477;51.474;5.696;2023-05-10T11:11:56;19.10;99.90
46732;DHT22;32477;51.474;5.696;2023-05-10T11:14:23;19.80;99.90
46732;DHT22;32477;51.474;5.696;2023-05-10T11:16:49;20.80;99.90
46732;DHT22;32477;51.474;5.696;2023-05-10T11:19:16;21.70;99.90
46732;DHT22;32477;51.474;5.696;2023-05-10T11:22:12;22.30;99.90
46732;DHT22;32477;51.474;5.696;2023-05-10T11:24:38;22.20;99.90
46732;DHT22;32477;51.474;5.696;2023-05-10T11:27:05;22.10;99.90
46732;DHT22;32477;51.474;5.696;2023-05-10T11:29:31;21.20;99.90
46732;DHT22;32477;51.474;5.696;2023-05-10T11:31:58;20.70;99.90
46732;DHT22;32477;51.474;5.696;2023-05-10T11:34:31;20.40;99.90
46732;DHT22;32477;51.474;5.696;2023-05-10T11:37:00;19.90;99.90
46732;DHT22;32477;51.474;5.696;2023-05-10T11:39:28;19.30;99.90
46732;DHT22;32477;51.474;5.696;2023-05-10T11:41:54;18.60;99.90
46732;DHT22;32477;51.474;5.696;2023-05-10T11:44:20;18.30;99.90
46732;DHT22;32477;51.474;5.696;2023-05-10T11:46:46;18.20;99.90
46732;DHT22;32477;51.474;5.696;2023-05-10T11:49:11;18.30;99.90
46732;DHT22;32477;51.474;5.696;2023-05-10T11:51:38;18.40;99.90
46732;DHT22;32477;51.474;5.696;2023-05-10T11:54:10;18.80;99.90
46732;DHT22;32477;51.474;5.696;2023-05-10T11:56:39;19.10;99.90
46732;DHT22;32477;51.474;5.696;2023-05-10T11:59:05;19.30;99.90
46732;DHT22;32477;51.474;5.696;2023-05-10T12:01:32;19.50;99.90
46732;DHT22;32477;51.474;5.696;2023-05-10T12:03:58;19.80;99.90
46732;DHT22;32477;51.474;5.696;2023-05-10T12:06:30;20.60;99.90
46732;DHT22;32477;51.474;5.696;2023-05-10T12:08:56;20.90;99.90
46732;DHT22;32477;51.474;5.696;2023-05-10T12:11:26;20.80;99.90
46732;DHT22;32477;51.474;5.696;2023-05-10T12:13:52;21.00;99.90
46732;DHT22;32477;51.474;5.696;2023-05-10T12:16:21;21.00;99.90
46732;DHT22;32477;51.474;5.696;2023-05-10T12:18:51;20.80;99.90
46732;DHT22;32477;51.474;5.696;2023-05-10T12:21:17;20.30;99.90
46732;DHT22;32477;51.474;5.696;2023-05-10T12:23:45;19.90;99.90
46732;DHT22;32477;51.474;5.696;2023-05-10T12:26:11;19.50;99.90
46732;DHT22;32477;51.474;5.696;2023-05-10T12:28:37;19.50;99.90
46732;DHT22;32477;51.474;5.696;2023-05-10T12:31:05;19.50;99.90
46732;DHT22;32477;51.474;5.696;2023-05-10T12:33:46;18.50;99.90
46732;DHT22;32477;51.474;5.696;2023-05-10T12:36:13;17.50;99.90
46732;DHT22;32477;51.474;5.696;2023-05-10T12:38:44;17.10;99.90
46732;DHT22;32477;51.474;5.696;2023-05-10T12:41:14;16.90;99.90
46732;DHT22;32477;51.474;5.696;2023-05-10T12:43:41;16.40;99.90
46732;DHT22;32477;51.474;5.696;2023-05-10T12:48:32;15.80;99.90
46732;DHT22;32477;51.474;5.696;2023-05-10T12:51:00;15.70;99.90
46732;DHT22;32477;51.474;5.696;2023-05-10T12:53:26;15.70;99.90
46732;DHT22;32477;51.474;5.696;2023-05-10T12:55:51;15.60;99.90
46732;DHT22;32477;51.474;5.696;2023-05-10T12:58:17;15.50;99.90
46732;DHT22;32477;51.474;5.696;2023-05-10T13:00:43;15.40;99.90
46732;DHT22;32477;51.474;5.696;2023-05-10T13:03:09;15.40;99.90
46732;DHT22;32477;51.474;5.696;2023-05-10T13:05:35;15.40;99.90
46732;DHT22;32477;51.474;5.696;2023-05-10T13:08:01;15.40;99.90
46732;DHT22;32477;51.474;5.696;2023-05-10T13:10:28;15.50;99.90
46732;DHT22;32477;51.474;5.696;2023-05-10T13:12:54;15.50;99.90
46732;DHT22;32477;51.474;5.696;2023-05-10T13:15:20;15.60;99.90
46732;DHT22;32477;51.474;5.696;2023-05-10T13:17:46;15.70;99.90
46732;DHT22;32477;51.474;5.696;2023-05-10T13:20:12;15.70;99.90
46732;DHT22;32477;51.474;5.696;2023-05-10T13:22:37;16.00;99.90
46732;DHT22;32477;51.474;5.696;2023-05-10T13:25:03;16.40;99.90
46732;DHT22;32477;51.474;5.696;2023-05-10T13:27:29;16.70;99.90
46732;DHT22;32477;51.474;5.696;2023-05-10T13:29:54;17.10;99.90
46732;DHT22;32477;51.474;5.696;2023-05-10T13:32:20;17.30;99.90
46732;DHT22;32477;51.474;5.696;2023-05-10T13:34:46;17.50;99.90
46732;DHT22;32477;51.474;5.696;2023-05-10T13:37:12;17.50;99.90
46732;DHT22;32477;51.474;5.696;2023-05-10T13:39:37;17.50;99.90
46732;DHT22;32477;51.474;5.696;2023-05-10T13:42:04;17.50;99.90
46732;DHT22;32477;51.474;5.696;2023-05-10T13:44:29;17.50;99.90
46732;DHT22;32477;51.474;5.696;2023-05-10T13:46:56;17.40;99.90
46732;DHT22;32477;51.474;5.696;2023-05-10T13:49:21;17.30;99.90
46732;DHT22;32477;51.474;5.696;2023-05-10T13:51:47;16.90;99.90
46732;DHT22;32477;51.474;5.696;2023-05-10T13:54:13;16.50;99.90
46732;DHT22;32477;51.474;5.696;2023-05-10T13:56:39;16.10;99.90
46732;DHT22;32477;51.474;5.696;2023-05-10T13:59:06;15.80;99.90
46732;DHT22;32477;51.474;5.696;2023-05-10T14:01:33;15.60;99.90
46732;DHT22;32477;51.474;5.696;2023-05-10T14:03:59;15.60;99.90
46732;DHT22;32477;51.474;5.696;2023-05-10T14:06:25;15.60;99.90
46732;DHT22;32477;51.474;5.696;2023-05-10T14:08:52;15.70;99.90
46732;DHT22;32477;51.474;5.696;2023-05-10T14:11:18;15.90;99.90
46732;DHT22;32477;51.474;5.696;2023-05-10T14:13:44;15.90;99.90
46732;DHT22;32477;51.474;5.696;2023-05-10T14:16:09;15.90;99.90
46732;DHT22;32477;51.474;5.696;2023-05-10T14:18:35;15.80;99.90
46732;DHT22;32477;51.474;5.696;2023-05-10T14:21:02;15.80;99.90
46732;DHT22;32477;51.474;5.696;2023-05-10T14:23:28;15.70;99.90
46732;DHT22;32477;51.474;5.696;2023-05-10T14:25:54;15.60;99.90
46732;DHT22;32477;51.474;5.696;2023-05-10T14:28:20;15.50;99.90
46732;DHT22;32477;51.474;5.696;2023-05-10T14:30:46;15.40;99.90
46732;DHT22;32477;51.474;5.696;2023-05-10T14:33:12;15.30;99.90
46732;DHT22;32477;51.474;5.696;2023-05-10T14:35:38;15.10;99.90
46732;DHT22;32477;51.474;5.696;2023-05-10T14:38:05;15.10;99.90
46732;DHT22;32477;51.474;5.696;2023-05-10T14:40:31;14.90;99.90
46732;DHT22;32477;51.474;5.696;2023-05-10T14:42:56;14.80;99.90
46732;DHT22;32477;51.474;5.696;2023-05-10T14:45:22;14.60;99.90
46732;DHT22;32477;51.474;5.696;2023-05-10T14:47:49;14.50;99.90
46732;DHT22;32477;51.474;5.696;2023-05-10T14:50:15;14.50;99.90
46732;DHT22;32477;51.474;5.696;2023-05-10T14:52:42;14.40;99.90
46732;DHT22;32477;51.474;5.696;2023-05-10T14:55:08;14.30;99.90
46732;DHT22;32477;51.474;5.696;2023-05-10T14:57:34;14.30;99.90
46732;DHT22;32477;51.474;5.696;2023-05-10T14:59:59;14.20;99.90
46732;DHT22;32477;51.474;5.696;2023-05-10T15:02:25;14.20;99.90
46732;DHT22;32477;51.474;5.696;2023-05-10T15:04:51;14.30;99.90
46732;DHT22;32477;51.474;5.696;2023-05-10T15:07:16;14.30;99.90
46732;DHT22;32477;51.474;5.696;2023-05-10T15:09:46;14.50;99.90
46732;DHT22;32477;51.474;5.696;2023-05-10T15:12:12;14.60;99.90
46732;DHT22;32477;51.474;5.696;2023-05-10T15:14:37;14.60;99.90
46732;DHT22;32477;51.474;5.696;2023-05-10T15:17:06;14.60;99.90
46732;DHT22;32477;51.474;5.696;2023-05-10T15:19:31;14.60;99.90
46732;DHT22;32477;51.474;5.696;2023-05-10T15:21:58;14.70;99.90
46732;DHT22;32477;51.474;5.696;2023-05-10T15:24:24;14.90;99.90
46732;DHT22;32477;51.474;5.696;2023-05-10T15:26:50;15.00;99.90
46732;DHT22;32477;51.474;5.696;2023-05-10T15:29:15;15.20;99.90
46732;DHT22;32477;51.474;5.696;2023-05-10T15:31:46;15.30;99.90
46732;DHT22;32477;51.474;5.696;2023-05-10T15:34:13;15.30;99.90
46732;DHT22;32477;51.474;5.696;2023-05-10T15:36:38;15.50;99.90
46732;DHT22;32477;51.474;5.696;2023-05-10T15:39:04;15.50;99.90
46732;DHT22;32477;51.474;5.696;2023-05-10T15:41:30;15.40;99.90
46732;DHT22;32477;51.474;5.696;2023-05-10T15:43:57;15.30;99.90
46732;DHT22;32477;51.474;5.696;2023-05-10T15:46:25;15.30;99.90
46732;DHT22;32477;51.474;5.696;2023-05-10T15:48:51;15.30;99.90
46732;DHT22;32477;51.474;5.696;2023-05-10T15:51:16;15.40;99.90
46732;DHT22;32477;51.474;5.696;2023-05-10T15:53:43;15.50;99.90
46732;DHT22;32477;51.474;5.696;2023-05-10T15:56:08;15.50;99.90
46732;DHT22;32477;51.474;5.696;2023-05-10T15:58:34;15.50;99.90
46732;DHT22;32477;51.474;5.696;2023-05-10T16:01:00;15.40;99.90